Time,TemperatureF,DewpointF,PressureIn,WindDirection,WindDirectionDegrees,WindSpeedMPH,WindSpeedGustMPH,Humidity,HourlyPrecipIn,Conditions,Clouds,dailyrainin,SoftwareType,DateUTC
2013-07-24 00:06:00,81.5,76.0,30.00,West,263,3.0,8.0,84,0.00,,,0.00,weatherlink.com 1.10,2013-07-24 04:06:00,
2013-07-24 00:21:00,81.4,76.0,29.99,WNW,290,4.0,8.0,83,0.00,,,0.00,weatherlink.com 1.10,2013-07-24 04:21:00,
2013-07-24 00:36:00,81.4,76.0,29.99,West,279,1.0,6.0,83,0.00,,,0.00,weatherlink.com 1.10,2013-07-24 04:36:00,
2013-07-24 00:51:00,81.3,76.0,29.99,WSW,252,3.0,6.0,84,0.00,,,0.00,weatherlink.com 1.10,2013-07-24 04:51:00,
2013-07-24 01:06:00,81.2,76.0,29.98,SW,233,0.0,7.0,84,0.00,,,0.00,weatherlink.com 1.10,2013-07-24 05:06:00,
2013-07-24 01:21:00,81.2,76.0,29.97,WNW,292,1.0,8.0,85,0.00,,,0.00,weatherlink.com 1.10,2013-07-24 05:21:00,
2013-07-24 01:36:00,81.2,76.0,29.96,West,264,2.0,8.0,84,0.00,,,0.00,weatherlink.com 1.10,2013-07-24 05:36:00,
2013-07-24 01:51:00,81.1,76.0,29.95,SW,226,7.0,7.0,84,0.00,,,0.00,weatherlink.com 1.10,2013-07-24 05:51:00,
2013-07-24 02:06:00,80.9,76.0,29.94,WSW,246,3.0,6.0,84,0.00,,,0.00,weatherlink.com 1.10,2013-07-24 06:06:00,
2013-07-24 02:22:00,80.7,76.0,29.94,SW,223,2.0,5.0,85,0.00,,,0.00,weatherlink.com 1.10,2013-07-24 06:22:00,
2013-07-24 02:36:00,80.5,76.0,29.94,WNW,292,3.0,7.0,85,0.00,,,0.00,weatherlink.com 1.10,2013-07-24 06:36:00,
2013-07-24 02:52:00,80.5,76.0,29.93,West,263,1.0,7.0,85,0.00,,,0.00,weatherlink.com 1.10,2013-07-24 06:52:00,
2013-07-24 03:07:00,80.5,76.0,29.93,SW,229,2.0,4.0,86,0.00,,,0.00,weatherlink.com 1.10,2013-07-24 07:07:00,
2013-07-24 03:22:00,80.4,76.0,29.93,SW,236,3.0,6.0,86,0.00,,,0.00,weatherlink.com 1.10,2013-07-24 07:22:00,
2013-07-24 03:37:00,80.6,76.0,29.93,West,280,4.0,7.0,85,0.00,,,0.00,weatherlink.com 1.10,2013-07-24 07:37:00,
2013-07-24 03:52:00,80.6,76.0,29.93,WSW,254,6.0,7.0,85,0.00,,,0.00,weatherlink.com 1.10,2013-07-24 07:52:00,
2013-07-24 04:07:00,80.7,76.0,29.92,West,276,3.0,9.0,85,0.00,,,0.00,weatherlink.com 1.10,2013-07-24 08:07:00,
2013-07-24 04:22:00,80.6,76.0,29.91,WSW,238,2.0,11.0,85,0.00,,,0.00,weatherlink.com 1.10,2013-07-24 08:22:00,
2013-07-24 04:37:00,80.5,76.0,29.92,WSW,256,1.0,9.0,85,0.00,,,0.00,weatherlink.com 1.10,2013-07-24 08:37:00,
2013-07-24 04:52:00,80.5,76.0,29.91,SW,227,4.0,10.0,86,0.00,,,0.00,weatherlink.com 1.10,2013-07-24 08:52:00,
2013-07-24 05:07:00,80.4,76.0,29.91,SW,226,10.0,10.0,86,0.00,,,0.00,weatherlink.com 1.10,2013-07-24 09:07:00,
2013-07-24 05:22:00,80.4,76.0,29.91,West,261,2.0,8.0,85,0.00,,,0.00,weatherlink.com 1.10,2013-07-24 09:22:00,
2013-07-24 05:37:00,80.3,76.0,29.91,SW,226,3.0,9.0,86,0.00,,,0.00,weatherlink.com 1.10,2013-07-24 09:37:00,
2013-07-24 05:52:00,80.3,76.0,29.92,West,262,5.0,9.0,86,0.00,,,0.00,weatherlink.com 1.10,2013-07-24 09:52:00,
2013-07-24 06:07:00,80.5,76.0,29.92,WSW,241,8.0,12.0,86,0.00,,,0.00,weatherlink.com 1.10,2013-07-24 10:07:00,
2013-07-24 06:22:00,80.2,76.0,29.92,WNW,294,4.0,11.0,86,0.00,,,0.00,weatherlink.com 1.10,2013-07-24 10:22:00,
2013-07-24 06:37:00,80.2,76.0,29.92,SW,235,2.0,9.0,86,0.00,,,0.00,weatherlink.com 1.10,2013-07-24 10:37:00,
2013-07-24 06:52:00,80.0,76.0,29.93,West,262,3.0,11.0,87,0.00,,,0.00,weatherlink.com 1.10,2013-07-24 10:52:00,
2013-07-24 07:07:00,80.3,76.0,29.93,SW,234,7.0,10.0,86,0.00,,,0.00,weatherlink.com 1.10,2013-07-24 11:07:00,
2013-07-24 07:22:00,80.3,76.0,29.93,SW,231,12.0,14.0,86,0.00,,,0.00,weatherlink.com 1.10,2013-07-24 11:22:00,
2013-07-24 07:37:00,80.7,76.0,29.93,SW,227,6.0,12.0,86,0.00,,,0.00,weatherlink.com 1.10,2013-07-24 11:37:00,
2013-07-24 07:52:00,81.0,76.0,29.93,SW,229,4.0,9.0,85,0.00,,,0.00,weatherlink.com 1.10,2013-07-24 11:52:00,
2013-07-24 08:07:00,81.3,76.0,29.94,WSW,238,5.0,11.0,84,0.00,,,0.00,weatherlink.com 1.10,2013-07-24 12:07:00,
2013-07-24 08:22:00,81.4,76.0,29.95,SSW,209,11.0,12.0,84,0.00,,,0.00,weatherlink.com 1.10,2013-07-24 12:22:00,
2013-07-24 08:37:00,82.1,77.0,29.96,WSW,252,4.0,15.0,83,0.00,,,0.00,weatherlink.com 1.10,2013-07-24 12:37:00,
2013-07-24 08:52:00,81.8,77.0,29.96,SW,233,6.0,13.0,84,0.00,,,0.00,weatherlink.com 1.10,2013-07-24 12:52:00,
2013-07-24 09:07:00,80.8,77.0,29.96,SW,217,7.0,16.0,87,0.00,,,0.00,weatherlink.com 1.10,2013-07-24 13:07:00,
2013-07-24 09:22:00,80.0,77.0,29.96,SW,222,7.0,10.0,89,0.00,,,0.00,weatherlink.com 1.10,2013-07-24 13:22:00,
2013-07-24 09:38:00,81.1,77.0,29.96,West,278,6.0,13.0,87,0.00,,,0.00,weatherlink.com 1.10,2013-07-24 13:38:00,
2013-07-24 09:52:00,82.8,77.0,29.96,WNW,283,7.0,17.0,83,0.00,,,0.00,weatherlink.com 1.10,2013-07-24 13:52:00,
2013-07-24 10:07:00,83.9,77.0,29.97,WNW,302,8.0,16.0,80,0.00,,,0.00,weatherlink.com 1.10,2013-07-24 14:07:00,
2013-07-24 10:22:00,84.8,77.0,29.97,WNW,301,5.0,15.0,78,0.00,,,0.00,weatherlink.com 1.10,2013-07-24 14:22:00,
2013-07-24 10:37:00,86.2,77.0,29.97,WSW,250,9.0,16.0,75,0.00,,,0.00,weatherlink.com 1.10,2013-07-24 14:37:00,
2013-07-24 10:52:00,87.2,78.0,29.97,NW,307,3.0,12.0,75,0.00,,,0.00,weatherlink.com 1.10,2013-07-24 14:52:00,
2013-07-24 11:07:00,85.4,77.0,29.97,WSW,254,7.0,17.0,77,0.00,,,0.00,weatherlink.com 1.10,2013-07-24 15:07:00,
2013-07-24 11:22:00,87.6,78.0,29.98,SW,224,6.0,15.0,72,0.00,,,0.00,weatherlink.com 1.10,2013-07-24 15:22:00,
2013-07-24 11:37:00,88.4,78.0,29.97,SW,225,7.0,16.0,71,0.00,,,0.00,weatherlink.com 1.10,2013-07-24 15:37:00,
2013-07-24 11:52:00,88.7,78.0,29.97,WNW,284,8.0,14.0,71,0.00,,,0.00,weatherlink.com 1.10,2013-07-24 15:52:00,
2013-07-24 12:07:00,87.6,77.0,29.97,West,270,9.0,17.0,71,0.00,,,0.00,weatherlink.com 1.10,2013-07-24 16:07:00,
2013-07-24 12:37:00,88.1,78.0,29.97,SSW,213,6.0,16.0,72,0.00,,,0.00,weatherlink.com 1.10,2013-07-24 16:37:00,
2013-07-24 12:52:00,88.9,78.0,29.97,WSW,249,6.0,16.0,71,0.00,,,0.00,weatherlink.com 1.10,2013-07-24 16:52:00,
2013-07-24 13:07:00,89.1,78.0,29.96,WNW,282,7.0,14.0,70,0.00,,,0.00,weatherlink.com 1.10,2013-07-24 17:07:00,
2013-07-24 13:22:00,90.0,78.0,29.96,WSW,240,6.0,13.0,68,0.00,,,0.00,weatherlink.com 1.10,2013-07-24 17:22:00,
2013-07-24 13:38:00,89.2,78.0,29.96,SW,225,6.0,12.0,69,0.00,,,0.00,weatherlink.com 1.10,2013-07-24 17:38:00,
2013-07-24 13:53:00,89.1,79.0,29.95,WSW,254,7.0,14.0,72,0.00,,,0.00,weatherlink.com 1.10,2013-07-24 17:53:00,
2013-07-24 14:08:00,89.1,78.0,29.95,WNW,298,8.0,21.0,70,0.00,,,0.00,weatherlink.com 1.10,2013-07-24 18:08:00,
2013-07-24 14:23:00,88.6,78.0,29.95,WSW,242,9.0,14.0,71,0.00,,,0.00,weatherlink.com 1.10,2013-07-24 18:23:00,
2013-07-24 14:38:00,89.1,78.0,29.95,WSW,248,7.0,14.0,69,0.00,,,0.00,weatherlink.com 1.10,2013-07-24 18:38:00,
2013-07-24 14:53:00,89.4,78.0,29.95,SW,232,10.0,15.0,69,0.00,,,0.00,weatherlink.com 1.10,2013-07-24 18:53:00,
2013-07-24 15:08:00,89.4,78.0,29.94,West,280,8.0,15.0,69,0.00,,,0.00,weatherlink.com 1.10,2013-07-24 19:08:00,
2013-07-24 15:23:00,89.2,78.0,29.94,WSW,255,11.0,16.0,70,0.00,,,0.00,weatherlink.com 1.10,2013-07-24 19:23:00,
2013-07-24 15:38:00,88.5,78.0,29.94,West,275,5.0,16.0,71,0.00,,,0.00,weatherlink.com 1.10,2013-07-24 19:38:00,
2013-07-24 15:53:00,88.7,78.0,29.93,SW,227,9.0,14.0,70,0.00,,,0.00,weatherlink.com 1.10,2013-07-24 19:53:00,
2013-07-24 16:08:00,88.4,78.0,29.92,West,267,5.0,16.0,71,0.00,,,0.00,weatherlink.com 1.10,2013-07-24 20:08:00,
2013-07-24 16:23:00,87.3,78.0,29.91,West,269,9.0,15.0,74,0.00,,,0.00,weatherlink.com 1.10,2013-07-24 20:23:00,
2013-07-24 16:38:00,86.4,78.0,29.91,WNW,303,4.0,12.0,75,0.00,,,0.00,weatherlink.com 1.10,2013-07-24 20:38:00,
2013-07-24 16:53:00,85.7,77.0,29.90,WNW,296,10.0,17.0,75,0.00,,,0.00,weatherlink.com 1.10,2013-07-24 20:53:00,
2013-07-24 17:08:00,86.2,77.0,29.90,West,267,7.0,13.0,74,0.00,,,0.00,weatherlink.com 1.10,2013-07-24 21:08:00,
2013-07-24 17:23:00,85.5,77.0,29.90,SW,232,11.0,15.0,76,0.00,,,0.00,weatherlink.com 1.10,2013-07-24 21:23:00,
2013-07-24 17:39:00,85.9,77.0,29.90,SSW,213,7.0,16.0,75,0.00,,,0.00,weatherlink.com 1.10,2013-07-24 21:39:00,
2013-07-24 17:53:00,85.9,77.0,29.90,West,280,8.0,14.0,74,0.00,,,0.00,weatherlink.com 1.10,2013-07-24 21:53:00,
2013-07-24 18:08:00,85.9,77.0,29.91,WNW,302,9.0,15.0,74,0.00,,,0.00,weatherlink.com 1.10,2013-07-24 22:08:00,
2013-07-24 18:23:00,85.7,77.0,29.90,SW,228,8.0,15.0,75,0.00,,,0.00,weatherlink.com 1.10,2013-07-24 22:23:00,
2013-07-24 18:38:00,85.4,77.0,29.90,West,276,6.0,13.0,75,0.00,,,0.00,weatherlink.com 1.10,2013-07-24 22:38:00,
2013-07-24 18:53:00,84.6,77.0,29.91,West,270,10.0,15.0,77,0.00,,,0.00,weatherlink.com 1.10,2013-07-24 22:53:00,
2013-07-24 19:09:00,84.2,76.0,29.91,WNW,287,5.0,14.0,77,0.00,,,0.00,weatherlink.com 1.10,2013-07-24 23:09:00,
2013-07-24 19:23:00,83.8,77.0,29.92,WNW,290,3.0,10.0,79,0.00,,,0.00,weatherlink.com 1.10,2013-07-24 23:23:00,
2013-07-24 19:38:00,83.6,77.0,29.92,SSW,213,7.0,13.0,79,0.00,,,0.00,weatherlink.com 1.10,2013-07-24 23:38:00,
2013-07-24 19:53:00,83.5,77.0,29.92,WNW,283,3.0,9.0,80,0.00,,,0.00,weatherlink.com 1.10,2013-07-24 23:53:00,
2013-07-24 20:08:00,83.1,76.0,29.93,WSW,249,2.0,12.0,80,0.00,,,0.00,weatherlink.com 1.10,2013-07-25 00:08:00,
2013-07-24 20:23:00,82.7,77.0,29.93,WSW,255,4.0,12.0,82,0.00,,,0.00,weatherlink.com 1.10,2013-07-25 00:23:00,
2013-07-24 20:38:00,82.6,77.0,29.92,West,276,3.0,11.0,82,0.00,,,0.00,weatherlink.com 1.10,2013-07-25 00:38:00,
2013-07-24 20:53:00,82.6,77.0,29.92,SW,216,7.0,12.0,82,0.00,,,0.00,weatherlink.com 1.10,2013-07-25 00:53:00,
2013-07-24 21:08:00,82.4,77.0,29.92,West,268,3.0,10.0,83,0.00,,,0.00,weatherlink.com 1.10,2013-07-25 01:08:00,
2013-07-24 21:23:00,82.3,77.0,29.92,WSW,254,5.0,8.0,84,0.00,,,0.00,weatherlink.com 1.10,2013-07-25 01:23:00,
2013-07-24 21:38:00,82.1,77.0,29.93,West,278,3.0,7.0,83,0.00,,,0.00,weatherlink.com 1.10,2013-07-25 01:38:00,
2013-07-24 21:53:00,82.1,76.0,29.93,West,275,4.0,7.0,82,0.00,,,0.00,weatherlink.com 1.10,2013-07-25 01:53:00,
2013-07-24 22:08:00,82.0,76.0,29.93,West,263,3.0,10.0,82,0.00,,,0.00,weatherlink.com 1.10,2013-07-25 02:08:00,
2013-07-24 22:23:00,82.2,77.0,29.93,WNW,294,3.0,8.0,83,0.00,,,0.00,weatherlink.com 1.10,2013-07-25 02:23:00,
2013-07-24 22:38:00,82.1,77.0,29.93,SW,228,4.0,10.0,83,0.00,,,0.00,weatherlink.com 1.10,2013-07-25 02:38:00,
2013-07-24 22:53:00,82.1,77.0,29.93,WSW,254,4.0,10.0,83,0.00,,,0.00,weatherlink.com 1.10,2013-07-25 02:53:00,
2013-07-24 23:08:00,82.0,77.0,29.93,West,271,8.0,10.0,85,0.00,,,0.00,weatherlink.com 1.10,2013-07-25 03:08:00,
2013-07-24 23:23:00,80.0,77.0,29.93,West,281,2.0,8.0,91,0.06,,,0.06,weatherlink.com 1.10,2013-07-25 03:23:00,
2013-07-24 23:53:00,78.9,77.0,29.93,WNW,283,3.0,6.0,93,0.06,,,0.06,weatherlink.com 1.10,2013-07-25 03:53:00,